Time;durP1;ratioP1;P1;durP2;ratioP2;P2;SDS_P1;SDS_P2;PMS_P1;PMS_P2;Temp;Humidity;BMP_temperature;BMP_pressure;BME280_temperature;BME280_humidity;BME280_pressure;Samples;Min_cycle;Max_cycle;Signal;HPM_P1;HPM_P2
2023/10/29 00:01:39;;;;;;;52.13;24.87;;;;;;;7.07;100.00;99291.94;4211277;28;20254;-71
2023/10/29 00:04:06;;;;;;;53.20;25.20;;;;;;;7.17;100.00;99297.25;4204533;28;20239;-70
2023/10/29 00:06:33;;;;;;;56.03;24.73;;;;;;;7.27;100.00;99297.16;4209137;28;21144;-68
2023/10/29 00:08:59;;;;;;;52.87;24.90;;;;;;;7.26;100.00;99285.56;4205809;28;20272;-70
2023/10/29 00:11:26;;;;;;;50.30;24.77;;;;;;;7.22;100.00;99296.78;4208669;28;20639;-70
2023/10/29 00:13:53;;;;;;;47.27;23.20;;;;;;;7.27;100.00;99294.47;4228271;28;21533;-69
2023/10/29 00:16:20;;;;;;;51.77;24.13;;;;;;;7.22;100.00;99292.22;4223824;28;20242;-70
2023/10/29 00:18:46;;;;;;;57.20;26.07;;;;;;;7.12;100.00;99289.63;4233917;28;23756;-70
2023/10/29 00:21:14;;;;;;;56.37;25.73;;;;;;;7.12;100.00;99286.09;4222710;28;20319;-70
2023/10/29 00:23:40;;;;;;;52.80;25.63;;;;;;;7.09;100.00;99284.56;4239486;28;20950;-69
2023/10/29 00:26:07;;;;;;;55.03;25.80;;;;;;;7.16;100.00;99289.34;4222966;28;23047;-70
2023/10/29 00:28:33;;;;;;;56.10;27.00;;;;;;;7.14;100.00;99279.56;4219085;28;22112;-70
2023/10/29 00:31:00;;;;;;;56.13;25.90;;;;;;;7.11;100.00;99281.72;4224828;28;20233;-69
2023/10/29 00:33:26;;;;;;;48.50;25.63;;;;;;;7.13;100.00;99277.03;4228811;28;20245;-69
2023/10/29 00:35:54;;;;;;;50.13;25.03;;;;;;;7.17;100.00;99278.41;4219249;28;21995;-68
2023/10/29 00:38:20;;;;;;;52.90;26.17;;;;;;;7.06;100.00;99274.09;4224824;28;20868;-69
2023/10/29 00:40:47;;;;;;;54.80;26.20;;;;;;;7.02;100.00;99277.25;4224132;28;21305;-71
2023/10/29 00:43:14;;;;;;;52.10;25.60;;;;;;;7.02;100.00;99279.94;4227600;28;20250;-69
2023/10/29 00:45:42;;;;;;;56.00;26.50;;;;;;;7.05;100.00;99279.66;4222328;28;20613;-68
2023/10/29 00:48:11;;;;;;;57.97;27.47;;;;;;;7.04;100.00;99273.41;4232843;28;20486;-74
2023/10/29 00:50:39;;;;;;;58.67;26.47;;;;;;;7.04;100.00;99276.09;4232720;28;20223;-71
2023/10/29 00:53:06;;;;;;;58.30;27.70;;;;;;;6.98;100.00;99282.09;4219345;28;21374;-71
2023/10/29 00:55:35;;;;;;;57.53;26.57;;;;;;;7.00;100.00;99273.84;4230886;28;20338;-73
2023/10/29 00:58:02;;;;;;;54.83;26.10;;;;;;;7.01;100.00;99294.38;4222478;28;20231;-72
2023/10/29 01:00:29;;;;;;;59.80;27.83;;;;;;;7.05;100.00;99296.63;4224137;28;20299;-74
2023/10/29 01:02:56;;;;;;;58.00;27.47;;;;;;;7.06;100.00;99294.78;4221964;28;20288;-74
2023/10/29 01:05:23;;;;;;;56.53;26.20;;;;;;;7.01;100.00;99294.38;4224128;28;20242;-71
2023/10/29 01:07:49;;;;;;;58.90;26.43;;;;;;;7.07;100.00;99299.16;4221963;28;20383;-72
2023/10/29 01:10:16;;;;;;;57.53;28.43;;;;;;;7.14;100.00;99293.03;4231647;28;20236;-73
2023/10/29 01:12:45;;;;;;;63.10;28.17;;;;;;;7.06;100.00;99301.00;4222970;28;22379;-72
2023/10/29 01:15:12;;;;;;;62.13;26.97;;;;;;;7.05;100.00;99293.09;4223594;28;20238;-71
2023/10/29 01:17:38;;;;;;;57.93;27.77;;;;;;;7.12;100.00;99299.56;4220995;28;21125;-71
2023/10/29 01:20:06;;;;;;;61.23;28.07;;;;;;;7.18;100.00;99303.47;4235522;28;22301;-73
2023/10/29 01:22:33;;;;;;;56.87;26.63;;;;;;;7.26;100.00;99301.72;4223825;28;20232;-72
2023/10/29 01:25:00;;;;;;;62.47;28.43;;;;;;;7.21;100.00;99305.84;4215686;28;20238;-72
2023/10/29 01:27:26;;;;;;;62.80;28.70;;;;;;;7.17;100.00;99304.47;4225039;28;23446;-71
2023/10/29 01:29:53;;;;;;;57.67;26.33;;;;;;;7.23;100.00;99298.47;4224086;28;20246;-74
2023/10/29 01:32:20;;;;;;;67.57;28.97;;;;;;;7.19;100.00;99297.09;4226485;28;20235;-72
2023/10/29 01:34:47;;;;;;;68.73;28.43;;;;;;;7.22;100.00;99299.47;4223881;28;22230;-74
2023/10/29 01:37:14;;;;;;;64.63;28.07;;;;;;;7.18;100.00;99296.25;4222499;28;20469;-73
2023/10/29 01:39:40;;;;;;;61.43;28.43;;;;;;;7.28;100.00;99288.94;4218598;28;21033;-73
2023/10/29 01:42:08;;;;;;;65.90;29.83;;;;;;;7.24;100.00;99292.09;4221146;28;20242;-73
2023/10/29 01:44:34;;;;;;;70.57;29.63;;;;;;;7.22;100.00;99296.78;4230986;28;20230;-73
2023/10/29 01:47:01;;;;;;;64.10;29.00;;;;;;;7.28;100.00;99288.94;4222058;28;20596;-73
2023/10/29 01:49:29;;;;;;;55.23;27.57;;;;;;;7.35;100.00;99299.94;4218216;28;21748;-73
2023/10/29 01:51:56;;;;;;;62.23;28.23;;;;;;;7.32;100.00;99302.94;4224315;28;20230;-72
2023/10/29 01:54:23;;;;;;;68.87;28.83;;;;;;;7.22;100.00;99300.31;4223475;28;20243;-73
2023/10/29 01:56:49;;;;;;;66.47;29.47;;;;;;;7.22;100.00;99303.00;4228376;28;22198;-75
2023/10/29 01:59:16;;;;;;;65.10;29.67;;;;;;;7.23;100.00;99312.78;4227600;28;26324;-72
2023/10/29 02:01:43;;;;;;;58.43;27.90;;;;;;;7.26;100.00;99312.47;4231207;28;20627;-69
2023/10/29 02:04:11;;;;;;;61.50;28.87;;;;;;;7.34;100.00;99309.00;4253167;28;20572;-69
2023/10/29 02:06:39;;;;;;;59.80;27.70;;;;;;;7.41;100.00;99311.94;4208171;28;20246;-69
2023/10/29 02:09:09;;;;;;;66.20;30.20;;;;;;;7.39;100.00;99309.41;4225761;28;20235;-69
2023/10/29 02:11:39;;;;;;;65.80;29.10;;;;;;;7.35;100.00;99308.00;4226955;28;20239;-70
2023/10/29 02:14:06;;;;;;;64.43;29.27;;;;;;;7.32;100.00;99308.34;4227886;28;20454;-69
2023/10/29 02:16:33;;;;;;;66.23;29.07;;;;;;;7.32;100.00;99310.16;4225776;28;20251;-69
2023/10/29 02:19:00;;;;;;;74.13;30.53;;;;;;;7.34;100.00;99308.16;4234012;28;20236;-68
2023/10/29 02:21:27;;;;;;;71.77;31.20;;;;;;;7.27;100.00;99322.25;4234955;28;20243;-69
2023/10/29 02:23:54;;;;;;;67.43;29.83;;;;;;;7.33;100.00;99325.31;4222840;28;20250;-68
2023/10/29 02:26:23;;;;;;;63.67;28.27;;;;;;;7.36;100.00;99325.84;4234397;28;20635;-71
2023/10/29 02:28:49;;;;;;;67.87;29.37;;;;;;;7.33;100.00;99328.00;4227621;28;20256;-69
2023/10/29 02:31:17;;;;;;;67.00;28.43;;;;;;;7.44;100.00;99330.44;4229653;28;20224;-70
2023/10/29 02:33:44;;;;;;;61.17;28.07;;;;;;;7.39;100.00;99333.63;4224243;28;20261;-69
2023/10/29 02:36:10;;;;;;;64.63;28.67;;;;;;;7.43;100.00;99339.56;4226452;28;20314;-70
2023/10/29 02:38:37;;;;;;;73.27;29.97;;;;;;;7.39;100.00;99335.47;4226576;28;20266;-68
2023/10/29 02:41:04;;;;;;;63.73;27.93;;;;;;;7.36;100.00;99325.03;4221094;28;20406;-69
2023/10/29 02:43:31;;;;;;;72.90;29.00;;;;;;;7.30;100.00;99321.94;4229403;28;21595;-69
2023/10/29 02:45:58;;;;;;;76.17;30.40;;;;;;;7.29;100.00;99320.22;4236889;28;20235;-70
2023/10/29 02:48:25;;;;;;;66.57;27.63;;;;;;;7.29;100.00;99336.38;4226106;28;20249;-70
2023/10/29 02:50:53;;;;;;;72.20;28.90;;;;;;;7.27;100.00;99332.16;4225634;28;22890;-70
2023/10/29 02:53:20;;;;;;;76.80;29.00;;;;;;;7.25;100.00;99331.47;4228787;28;20887;-71
2023/10/29 02:55:47;;;;;;;63.10;27.47;;;;;;;7.29;100.00;99338.25;4224495;28;20673;-69
2023/10/29 02:58:14;;;;;;;71.30;29.30;;;;;;;7.33;100.00;99341.47;4220605;28;22905;-69
2023/10/29 03:00:41;;;;;;;66.30;27.23;;;;;;;7.38;100.00;99341.84;4230918;28;20341;-69
2023/10/29 03:03:07;;;;;;;69.20;27.53;;;;;;;7.38;100.00;99336.47;4235921;28;20235;-72
2023/10/29 03:05:34;;;;;;;75.53;28.97;;;;;;;7.24;100.00;99329.78;4227201;28;20285;-68
2023/10/29 03:08:19;;;;;;;77.60;28.43;;;;;;;7.17;100.00;99334.94;4227247;28;20237;-68
2023/10/29 03:10:49;;;;;;;71.47;28.83;;;;;;;7.17;100.00;99331.41;4228792;28;25514;-68
2023/10/29 03:13:16;;;;;;;62.50;26.67;;;;;;;7.24;100.00;99337.88;4228571;28;20329;-68
2023/10/29 03:15:43;;;;;;;79.90;29.07;;;;;;;7.21;100.00;99340.84;4228317;28;20239;-68
2023/10/29 03:18:11;;;;;;;65.20;27.20;;;;;;;7.23;100.00;99339.69;4227531;28;21310;-68
2023/10/29 03:20:38;;;;;;;60.10;25.97;;;;;;;7.31;100.00;99336.25;4227747;28;20237;-70
2023/10/29 03:23:05;;;;;;;86.33;31.20;;;;;;;7.29;100.00;99339.06;4224307;28;20243;-70
2023/10/29 03:25:32;;;;;;;78.10;29.30;;;;;;;7.18;100.00;99338.44;4216600;28;20563;-69
2023/10/29 03:27:59;;;;;;;84.03;30.57;;;;;;;7.19;100.00;99338.31;4225159;28;20285;-69
2023/10/29 03:30:25;;;;;;;90.53;30.37;;;;;;;7.16;100.00;99341.31;4225227;28;20263;-69
2023/10/29 03:32:52;;;;;;;74.67;28.47;;;;;;;7.26;100.00;99336.72;4227047;28;20600;-70
2023/10/29 03:35:19;;;;;;;75.37;28.27;;;;;;;7.27;100.00;99332.16;4230485;28;21745;-70
2023/10/29 03:37:45;;;;;;;86.87;30.10;;;;;;;7.27;100.00;99337.53;4224875;28;20240;-70
2023/10/29 03:40:12;;;;;;;89.80;30.23;;;;;;;7.14;100.00;99340.59;4229563;28;20732;-68
2023/10/29 03:42:38;;;;;;;88.27;29.23;;;;;;;7.09;100.00;99348.28;4225228;28;21721;-70
2023/10/29 03:45:05;;;;;;;89.13;29.93;;;;;;;7.08;100.00;99354.66;4225635;28;20270;-69
2023/10/29 03:47:32;;;;;;;90.33;30.00;;;;;;;7.14;100.00;99337.91;4231210;28;20231;-69
2023/10/29 03:49:59;;;;;;;79.67;28.67;;;;;;;7.12;100.00;99337.25;4229603;28;20231;-69
2023/10/29 03:52:25;;;;;;;79.60;29.20;;;;;;;7.25;100.00;99337.69;4227858;28;25173;-70
2023/10/29 03:54:52;;;;;;;88.63;30.70;;;;;;;7.25;100.00;99332.31;4229142;28;20231;-69
2023/10/29 03:57:18;;;;;;;93.77;30.97;;;;;;;7.27;100.00;99333.03;4233896;28;22591;-68
2023/10/29 03:59:45;;;;;;;93.07;30.77;;;;;;;7.34;100.00;99335.09;4227569;28;20239;-68
2023/10/29 04:02:11;;;;;;;85.23;29.33;;;;;;;7.27;100.00;99326.78;4222920;28;20235;-68
2023/10/29 04:04:38;;;;;;;108.37;30.97;;;;;;;7.27;100.00;99322.25;4235856;28;20234;-70
2023/10/29 04:07:04;;;;;;;85.70;29.97;;;;;;;7.29;100.00;99320.22;4229917;28;20230;-68
2023/10/29 04:09:31;;;;;;;92.93;30.00;;;;;;;7.23;100.00;99318.16;4225176;28;20240;-69
2023/10/29 04:11:59;;;;;;;83.73;29.13;;;;;;;7.34;100.00;99330.53;4226168;28;20361;-68
2023/10/29 04:14:25;;;;;;;93.63;30.20;;;;;;;7.34;100.00;99321.63;4236956;28;20315;-70
2023/10/29 04:16:52;;;;;;;94.80;31.17;;;;;;;7.28;100.00;99312.31;4223398;28;21770;-69
2023/10/29 04:19:19;;;;;;;94.67;30.47;;;;;;;7.21;100.00;99308.56;4226240;28;20277;-70
2023/10/29 04:21:45;;;;;;;85.33;29.47;;;;;;;7.28;100.00;99310.50;4225620;28;20350;-68
2023/10/29 04:24:12;;;;;;;103.53;31.53;;;;;;;7.24;100.00;99314.47;4229809;28;20239;-70
2023/10/29 04:26:39;;;;;;;83.33;29.30;;;;;;;7.25;100.00;99316.16;4225748;28;20268;-69
2023/10/29 04:29:05;;;;;;;81.83;27.90;;;;;;;7.36;100.00;99322.31;4225588;28;20265;-68
2023/10/29 04:31:32;;;;;;;101.90;30.97;;;;;;;7.35;100.00;99324.16;4225839;28;21091;-69
2023/10/29 04:33:58;;;;;;;93.07;29.57;;;;;;;7.37;100.00;99330.25;4222753;28;20802;-68
2023/10/29 04:36:25;;;;;;;104.10;28.53;;;;;;;7.35;100.00;99326.84;4227520;28;22888;-70
2023/10/29 04:38:52;;;;;;;92.33;27.53;;;;;;;7.34;100.00;99329.72;4226873;28;20235;-70
2023/10/29 04:41:19;;;;;;;95.83;27.80;;;;;;;7.34;100.00;99321.63;4224873;28;22609;-69
2023/10/29 04:43:46;;;;;;;84.57;26.93;;;;;;;7.38;100.00;99323.00;4225417;28;21627;-69
2023/10/29 04:46:15;;;;;;;97.50;27.10;;;;;;;7.38;100.00;99328.38;4229657;28;20235;-68
2023/10/29 04:48:43;;;;;;;101.23;29.23;;;;;;;7.39;100.00;99330.09;4231134;28;20247;-70
2023/10/29 04:51:10;;;;;;;101.63;28.97;;;;;;;7.40;100.00;99335.31;4227570;28;20606;-70
2023/10/29 04:53:37;;;;;;;98.37;28.17;;;;;;;7.42;100.00;99336.00;4233770;28;20306;-68
2023/10/29 04:56:04;;;;;;;99.83;29.00;;;;;;;7.46;100.00;99320.38;4232956;28;20238;-69
2023/10/29 04:58:34;;;;;;;98.87;28.00;;;;;;;7.41;100.00;99330.78;4220543;28;20304;-68
2023/10/29 05:01:00;;;;;;;118.43;30.90;;;;;;;7.39;100.00;99340.84;4229010;28;20281;-69
2023/10/29 05:03:27;;;;;;;122.60;31.33;;;;;;;7.37;100.00;99334.75;4235006;28;20319;-68
2023/10/29 05:05:55;;;;;;;127.10;30.30;;;;;;;7.36;100.00;99330.41;4217640;28;20230;-67
2023/10/29 05:08:22;;;;;;;123.23;31.33;;;;;;;7.45;100.00;99333.00;4223594;28;20355;-69
2023/10/29 05:10:48;;;;;;;121.60;31.00;;;;;;;7.42;100.00;99329.78;4227306;28;20227;-69
2023/10/29 05:13:15;;;;;;;140.57;31.00;;;;;;;7.40;100.00;99339.84;4223531;28;20234;-69
2023/10/29 05:15:42;;;;;;;143.13;31.63;;;;;;;7.39;100.00;99341.72;4223920;28;20701;-71
2023/10/29 05:18:08;;;;;;;95.27;27.40;;;;;;;7.50;100.00;99343.31;4229514;28;20351;-67
2023/10/29 05:20:37;;;;;;;126.17;32.83;;;;;;;7.46;100.00;99333.84;4222643;28;20232;-68
2023/10/29 05:23:05;;;;;;;120.10;32.63;;;;;;;7.46;100.00;99328.47;4221163;28;20239;-71
2023/10/29 05:25:31;;;;;;;139.37;32.67;;;;;;;7.49;100.00;99338.94;4227034;28;25035;-69
2023/10/29 05:27:58;;;;;;;134.00;33.37;;;;;;;7.50;100.00;99342.47;4234004;28;20230;-69
2023/10/29 05:30:24;;;;;;;151.17;34.87;;;;;;;7.48;100.00;99344.50;4227456;28;26299;-68
2023/10/29 05:32:52;;;;;;;124.10;31.37;;;;;;;7.51;100.00;99350.41;4229361;28;20317;-69
2023/10/29 05:35:18;;;;;;;120.60;31.13;;;;;;;7.51;100.00;99353.09;4231592;28;20235;-69
2023/10/29 05:37:45;;;;;;;127.60;33.00;;;;;;;7.55;100.00;99362.56;4231148;28;20523;-68
2023/10/29 05:40:11;;;;;;;143.83;34.17;;;;;;;7.53;100.00;99367.22;4255832;28;20235;-71
2023/10/29 05:42:38;;;;;;;120.90;31.87;;;;;;;7.67;100.00;99363.16;4234988;28;20320;-70
2023/10/29 05:45:06;;;;;;;126.43;31.53;;;;;;;7.63;100.00;99374.41;4228000;28;20243;-69
2023/10/29 05:47:33;;;;;;;110.60;29.73;;;;;;;7.72;100.00;99376.16;4225342;28;23635;-68
2023/10/29 05:50:01;;;;;;;110.00;31.10;;;;;;;7.82;100.00;99379.59;4251740;28;20249;-70
2023/10/29 05:52:27;;;;;;;122.87;32.37;;;;;;;7.76;100.00;99372.16;4242263;28;20914;-70
2023/10/29 05:54:54;;;;;;;114.87;31.40;;;;;;;7.81;100.00;99388.72;4230318;28;23748;-70
2023/10/29 05:57:21;;;;;;;125.20;33.17;;;;;;;7.78;100.00;99389.84;4256859;28;25675;-70
2023/10/29 05:59:48;;;;;;;134.43;33.40;;;;;;;7.72;100.00;99398.56;4262423;28;21051;-69
2023/10/29 06:02:15;;;;;;;125.40;31.13;;;;;;;7.83;100.00;99402.84;4241115;28;20242;-69
2023/10/29 06:04:42;;;;;;;128.07;31.47;;;;;;;7.93;100.00;99400.09;4241399;28;21277;-73
2023/10/29 06:07:08;;;;;;;125.13;32.07;;;;;;;7.79;100.00;99401.47;4231003;28;21132;-70
2023/10/29 06:09:35;;;;;;;120.43;31.07;;;;;;;7.84;100.00;99388.38;4236178;28;20242;-73
2023/10/29 06:12:02;;;;;;;122.77;31.87;;;;;;;7.86;100.00;99407.94;4237104;28;20247;-71
2023/10/29 06:14:32;;;;;;;97.93;29.27;;;;;;;8.03;100.00;99400.00;4256330;28;20235;-72
2023/10/29 06:16:58;;;;;;;102.73;30.00;;;;;;;8.06;100.00;99414.00;4249158;28;22160;-70
2023/10/29 06:19:41;;;;;;;111.87;31.73;;;;;;;8.01;100.00;99410.09;4260833;28;20235;-73
2023/10/29 06:22:08;;;;;;;126.13;31.20;;;;;;;7.96;100.00;99418.63;4276659;28;25086;-73
2023/10/29 06:24:35;;;;;;;108.17;29.70;;;;;;;8.03;100.00;99414.31;4254091;28;20235;-71
2023/10/29 06:27:03;;;;;;;120.13;32.07;;;;;;;8.09;100.00;99408.28;4253214;28;20469;-70
2023/10/29 06:29:31;;;;;;;102.13;32.67;;;;;;;8.11;100.00;99415.38;4230449;28;21332;-67
2023/10/29 06:31:59;;;;;;;112.73;30.77;;;;;;;8.22;100.00;99418.66;4258918;28;20266;-72
2023/10/29 06:34:25;;;;;;;96.07;28.17;;;;;;;8.37;100.00;99423.47;4231374;28;20308;-70
2023/10/29 06:36:52;;;;;;;104.90;30.63;;;;;;;8.36;100.00;99416.38;4241998;28;20235;-71
2023/10/29 06:39:19;;;;;;;108.03;30.87;;;;;;;8.37;100.00;99426.19;4244675;28;20324;-68
2023/10/29 06:41:45;;;;;;;108.07;30.23;;;;;;;8.39;100.00;99425.00;4246681;28;20224;-70
2023/10/29 06:44:12;;;;;;;110.23;30.93;;;;;;;8.34;100.00;99424.66;4230022;28;20392;-69
2023/10/29 06:46:38;;;;;;;107.33;30.67;;;;;;;8.42;100.00;99431.97;4235447;28;20230;-70
2023/10/29 06:49:05;;;;;;;105.63;31.57;;;;;;;8.42;100.00;99423.88;4249125;28;20599;-68
2023/10/29 06:51:32;;;;;;;87.83;28.50;;;;;;;8.52;100.00;99419.22;4227601;28;20656;-69
2023/10/29 06:53:58;;;;;;;101.83;30.17;;;;;;;8.50;100.00;99410.44;4226554;28;21883;-68
2023/10/29 06:56:25;;;;;;;97.03;30.23;;;;;;;8.50;100.00;99407.75;4253361;28;20319;-70
2023/10/29 06:58:52;;;;;;;91.23;29.53;;;;;;;8.66;100.00;99420.50;4235175;28;20270;-69
2023/10/29 07:01:18;;;;;;;90.87;29.23;;;;;;;8.68;100.00;99413.09;4238082;28;20243;-71
2023/10/29 07:03:46;;;;;;;87.80;29.60;;;;;;;8.69;100.00;99395.03;4239630;28;21202;-70
2023/10/29 07:06:14;;;;;;;81.13;28.60;;;;;;;8.73;100.00;99401.78;4250074;28;20530;-70
2023/10/29 07:08:40;;;;;;;84.33;28.10;;;;;;;8.81;100.00;99390.22;4231539;28;20299;-70
2023/10/29 07:11:07;;;;;;;80.93;28.30;;;;;;;8.91;100.00;99390.94;4244077;28;20223;-71
2023/10/29 07:13:34;;;;;;;74.40;26.80;;;;;;;9.13;100.00;99392.19;4231130;28;20289;-70
2023/10/29 07:16:02;;;;;;;72.47;25.47;;;;;;;9.27;100.00;99389.84;4230132;28;25891;-74
2023/10/29 07:18:31;;;;;;;57.20;24.77;;;;;;;9.23;100.00;99392.03;4228080;28;20233;-72
2023/10/29 07:20:58;;;;;;;63.57;24.80;;;;;;;9.29;100.00;99393.25;4237402;28;20228;-68
2023/10/29 07:23:26;;;;;;;58.20;23.83;;;;;;;9.32;100.00;99387.53;4229468;28;20498;-68
2023/10/29 07:25:52;;;;;;;57.13;23.80;;;;;;;9.40;100.00;99395.66;4247095;28;20572;-69
2023/10/29 07:28:19;;;;;;;54.60;23.17;;;;;;;9.44;100.00;99388.06;4236214;28;22206;-71
2023/10/29 07:30:46;;;;;;;52.87;22.10;;;;;;;9.69;100.00;99402.44;4230576;28;21247;-69
2023/10/29 07:33:12;;;;;;;54.10;21.93;;;;;;;10.03;100.00;99406.00;4227428;28;20243;-71
2023/10/29 07:35:39;;;;;;;44.63;20.70;;;;;;;10.38;100.00;99404.81;4230369;28;23015;-79
2023/10/29 07:38:07;;;;;;;42.93;18.00;;;;;;;10.29;100.00;99392.28;4230501;28;20397;-76
2023/10/29 07:40:36;;;;;;;44.77;17.63;;;;;;;10.38;100.00;99393.13;4229301;28;20249;-74
2023/10/29 07:43:03;;;;;;;34.33;16.43;;;;;;;10.33;100.00;99377.38;4210489;28;21457;-74
2023/10/29 07:45:31;;;;;;;35.97;16.47;;;;;;;10.58;100.00;99382.78;4233233;28;20428;-75
2023/10/29 07:47:58;;;;;;;29.17;14.90;;;;;;;10.82;100.00;99379.16;4225979;28;21071;-76
2023/10/29 07:50:26;;;;;;;29.33;14.07;;;;;;;10.84;100.00;99374.41;4233802;28;20240;-76
2023/10/29 07:52:52;;;;;;;26.33;14.10;;;;;;;11.19;100.00;99377.63;4223690;28;20240;-73
2023/10/29 07:55:19;;;;;;;24.50;11.87;;;;;;;11.88;95.34;99378.69;4224659;28;20244;-74
2023/10/29 07:57:46;;;;;;;22.17;10.70;;;;;;;12.22;90.67;99373.84;4230596;28;22435;-73
2023/10/29 08:00:13;;;;;;;18.80;9.67;;;;;;;12.65;88.35;99364.03;4232305;28;20246;-73
2023/10/29 08:02:41;;;;;;;17.97;9.40;;;;;;;12.75;87.76;99365.63;4228500;28;20247;-78
2023/10/29 08:05:12;;;;;;;23.00;9.50;;;;;;;13.95;80.28;99368.91;4234810;28;20231;-74
2023/10/29 08:07:39;;;;;;;18.97;8.30;;;;;;;15.33;75.90;99361.97;4236301;28;20243;-75
2023/10/29 08:10:07;;;;;;;14.60;7.50;;;;;;;16.48;68.48;99366.50;4237194;28;20307;-77
2023/10/29 08:12:34;;;;;;;12.80;7.10;;;;;;;15.81;70.52;99358.28;4222235;28;20675;-79
2023/10/29 08:15:02;;;;;;;20.03;7.27;;;;;;;16.52;67.66;99358.72;4225387;28;20915;-75
2023/10/29 08:17:30;;;;;;;16.30;6.70;;;;;;;17.21;65.22;99356.41;4237395;28;21723;-75
2023/10/29 08:19:58;;;;;;;12.93;6.50;;;;;;;17.82;63.05;99371.44;4234623;28;20306;-75
2023/10/29 08:22:26;;;;;;;12.70;6.63;;;;;;;17.50;63.73;99363.22;4227662;28;20322;-75
2023/10/29 08:24:53;;;;;;;16.00;6.50;;;;;;;17.94;61.60;99363.31;4223308;28;21141;-75
2023/10/29 08:27:19;;;;;;;11.30;6.27;;;;;;;19.21;57.35;99372.25;4231335;28;20293;-74
2023/10/29 08:29:48;;;;;;;16.80;6.33;;;;;;;20.55;54.27;99372.97;4229736;28;21400;-74
2023/10/29 08:32:15;;;;;;;11.10;6.07;;;;;;;21.07;51.63;99365.06;4240918;28;22474;-76
2023/10/29 08:34:41;;;;;;;9.83;5.43;;;;;;;21.41;49.60;99371.53;4235770;28;20268;-73
2023/10/29 08:37:08;;;;;;;11.30;5.67;;;;;;;22.17;48.99;99382.25;4223519;28;21684;-75
2023/10/29 08:39:36;;;;;;;10.20;5.30;;;;;;;22.43;46.80;99387.41;4251235;28;20235;-73
2023/10/29 08:42:04;;;;;;;13.30;5.90;;;;;;;22.00;46.74;99381.44;4244081;28;21361;-71
2023/10/29 08:44:31;;;;;;;12.10;5.80;;;;;;;21.59;48.21;99372.41;4218029;28;22883;-72
2023/10/29 08:46:57;;;;;;;11.23;5.53;;;;;;;21.86;48.25;99380.91;4239712;28;20249;-73
2023/10/29 08:49:24;;;;;;;13.40;5.57;;;;;;;22.00;47.29;99385.03;4233057;28;20237;-73
2023/10/29 08:51:51;;;;;;;12.00;5.30;;;;;;;22.59;46.49;99391.25;4237845;28;20228;-76
2023/10/29 08:54:18;;;;;;;11.03;5.70;;;;;;;21.21;48.07;99382.97;4232646;28;20283;-76
2023/10/29 08:56:45;;;;;;;10.00;5.17;;;;;;;20.92;50.54;99382.91;4229550;28;20321;-72
2023/10/29 08:59:15;;;;;;;13.63;5.57;;;;;;;21.36;49.32;99380.53;4243271;28;20322;-74
2023/10/29 09:01:41;;;;;;;12.03;5.40;;;;;;;19.83;52.97;99381.31;4238225;28;22164;-72
2023/10/29 09:04:10;;;;;;;14.17;5.10;;;;;;;18.61;56.18;99370.16;4217263;28;20360;-72
2023/10/29 09:06:37;;;;;;;9.97;5.30;;;;;;;18.03;58.58;99378.47;4250887;28;21639;-72
2023/10/29 09:09:04;;;;;;;13.97;5.73;;;;;;;17.97;59.60;99373.06;4230566;28;20237;-71
2023/10/29 09:11:31;;;;;;;12.53;5.40;;;;;;;17.71;59.15;99364.75;4224983;28;20322;-76
2023/10/29 09:13:58;;;;;;;11.93;5.50;;;;;;;17.01;61.46;99370.16;4223308;28;20321;-72
2023/10/29 09:16:25;;;;;;;12.00;5.07;;;;;;;16.29;64.94;99371.78;4232285;28;21831;-77
2023/10/29 09:18:52;;;;;;;12.83;5.20;;;;;;;16.01;66.27;99366.53;4224623;28;20343;-73
2023/10/29 09:21:19;;;;;;;13.50;5.40;;;;;;;15.68;66.93;99370.03;4229804;28;26404;-73
2023/10/29 09:23:46;;;;;;;14.10;6.00;;;;;;;15.71;67.90;99366.88;4226190;28;20231;-73
2023/10/29 09:26:12;;;;;;;10.53;5.00;;;;;;;15.71;67.82;99363.34;4225246;28;20879;-73
2023/10/29 09:28:42;;;;;;;9.60;5.17;;;;;;;15.78;68.82;99367.75;4225055;28;20338;-74
2023/10/29 09:31:16;;;;;;;13.00;5.53;;;;;;;15.57;69.12;99373.38;4239780;28;20240;-73
2023/10/29 09:33:44;;;;;;;10.03;5.43;;;;;;;15.79;68.43;99363.09;4218331;28;20239;-75
2023/10/29 09:36:10;;;;;;;11.47;5.20;;;;;;;15.40;69.48;99359.28;4242154;28;20239;-77
2023/10/29 09:38:37;;;;;;;11.60;5.10;;;;;;;15.26;70.39;99363.84;4221465;28;20257;-73
2023/10/29 09:41:04;;;;;;;10.77;4.83;;;;;;;15.24;70.84;99361.31;4218557;28;20592;-74
2023/10/29 09:43:37;;;;;;;13.23;5.10;;;;;;;15.10;71.58;99348.69;4202920;28;21874;-74
2023/10/29 09:46:07;;;;;;;14.80;5.60;;;;;;;14.90;73.82;99352.16;4240338;28;20309;-74
2023/10/29 09:48:34;;;;;;;11.60;5.00;;;;;;;15.21;73.17;99354.41;4230459;28;20236;-73
2023/10/29 09:51:04;;;;;;;9.57;5.20;;;;;;;15.20;72.26;99347.25;4216408;28;20415;-73
2023/10/29 09:53:32;;;;;;;9.47;4.93;;;;;;;15.74;69.99;99343.81;4220656;28;20243;-74
2023/10/29 09:55:58;;;;;;;10.40;4.80;;;;;;;15.82;68.46;99343.59;4223047;28;22099;-72
2023/10/29 09:58:27;;;;;;;12.27;4.40;;;;;;;15.67;68.16;99343.81;4255494;28;20235;-73
2023/10/29 10:00:54;;;;;;;9.30;4.60;;;;;;;15.49;69.28;99356.16;4222821;28;20239;-73
2023/10/29 10:03:24;;;;;;;7.47;4.03;;;;;;;15.50;69.92;99349.66;4221075;28;23072;-73
2023/10/29 10:05:52;;;;;;;12.83;4.73;;;;;;;15.63;69.54;99343.38;4239516;28;20490;-73
2023/10/29 10:08:29;;;;;;;9.87;4.40;;;;;;;15.40;69.91;99342.91;4229870;28;22543;-72
2023/10/29 10:10:57;;;;;;;10.27;4.90;;;;;;;15.07;71.00;99352.66;4216897;28;20243;-74
2023/10/29 10:13:44;;;;;;;10.47;4.93;;;;;;;14.96;72.13;99340.44;4227567;28;20290;-75
2023/10/29 10:16:12;;;;;;;12.40;4.87;;;;;;;15.04;73.43;99337.53;4259693;28;20248;-77
2023/10/29 10:18:57;;;;;;;13.87;5.20;;;;;;;14.93;73.62;99332.69;4242242;28;20435;-73
2023/10/29 10:21:39;;;;;;;14.50;4.50;;;;;;;14.85;73.68;99336.41;4246878;28;20240;-74
2023/10/29 10:24:06;;;;;;;11.93;4.97;;;;;;;15.25;72.85;99327.56;4263530;28;20256;-77
2023/10/29 10:26:35;;;;;;;11.57;4.87;;;;;;;15.52;72.49;99336.63;4263539;28;20342;-75
2023/10/29 10:29:07;;;;;;;9.23;4.70;;;;;;;15.59;71.74;99328.47;4257390;28;20250;-77
2023/10/29 10:31:35;;;;;;;11.97;4.57;;;;;;;15.93;70.47;99326.66;4243776;28;20235;-77
2023/10/29 10:34:10;;;;;;;10.03;4.43;;;;;;;16.05;69.87;99323.28;4245772;28;20363;-75
2023/10/29 10:36:37;;;;;;;8.80;4.33;;;;;;;15.95;70.41;99319.06;4219670;28;20310;-77
2023/10/29 10:39:04;;;;;;;13.10;4.33;;;;;;;15.60;71.05;99318.38;4245175;28;20592;-78
2023/10/29 10:41:45;;;;;;;8.50;4.13;;;;;;;15.37;72.22;99312.28;4235042;28;20428;-74
2023/10/29 10:44:14;;;;;;;14.17;4.20;;;;;;;15.46;72.22;99310.19;4246929;28;21808;-75
2023/10/29 10:46:47;;;;;;;9.20;4.20;;;;;;;15.17;72.21;99304.03;4227623;28;20642;-76
2023/10/29 10:49:15;;;;;;;8.90;4.13;;;;;;;15.29;71.56;99289.81;4232056;28;20321;-73
2023/10/29 10:51:42;;;;;;;7.53;3.70;;;;;;;15.35;71.57;99300.72;4255281;28;20242;-75
2023/10/29 10:54:09;;;;;;;9.07;4.07;;;;;;;15.39;70.16;99295.69;4233114;28;20274;-78
2023/10/29 10:56:37;;;;;;;8.87;3.57;;;;;;;15.21;70.49;99293.56;4220974;28;20619;-75
2023/10/29 10:59:07;;;;;;;10.50;3.40;;;;;;;15.34;70.01;99298.22;4225511;28;20248;-74
2023/10/29 11:01:37;;;;;;;9.53;3.63;;;;;;;15.53;69.45;99300.13;4240201;28;20390;-74
2023/10/29 11:04:08;;;;;;;7.53;3.37;;;;;;;15.52;68.62;99292.97;4241215;28;20227;-75
2023/10/29 11:06:38;;;;;;;11.63;3.20;;;;;;;15.61;68.53;99300.97;4239848;28;20320;-76
2023/10/29 11:09:13;;;;;;;11.67;4.07;;;;;;;15.53;68.45;99297.41;4237359;28;20227;-75
2023/10/29 11:11:45;;;;;;;8.93;3.30;;;;;;;15.54;68.15;99281.88;4243997;28;21722;-75
2023/10/29 11:14:14;;;;;;;5.80;2.97;;;;;;;15.76;67.56;99293.41;4228399;28;20235;-71
2023/10/29 11:16:55;;;;;;;12.17;3.07;;;;;;;15.84;66.98;99278.78;4220939;28;22007;-73
2023/10/29 11:19:45;;;;;;;9.00;3.47;;;;;;;15.92;66.09;99283.16;4225235;28;20235;-73
2023/10/29 11:22:25;;;;;;;11.53;3.27;;;;;;;15.86;65.60;99275.81;4220863;28;20231;-70